createdAt,value
2024-01-15T00:03:47.822Z,1534
2024-01-15T00:09:06.591Z,1531
2024-01-15T00:14:24.886Z,1529
2024-01-15T00:19:43.264Z,1527
2024-01-15T00:25:01.832Z,1608
2024-01-15T00:30:19.893Z,1611
2024-01-15T00:35:38.310Z,1623
2024-01-15T00:40:56.831Z,1602
2024-01-15T00:46:15.158Z,1598
2024-01-15T00:51:33.502Z,1606
2024-01-15T00:56:51.729Z,1622
2024-01-15T01:02:09.687Z,1627
2024-01-15T01:07:27.785Z,1641
2024-01-15T01:12:46.383Z,1626
2024-01-15T01:18:05.215Z,1629
2024-01-15T01:23:24.531Z,1637
2024-01-15T01:28:42.711Z,1633
2024-01-15T01:34:01.154Z,1636
2024-01-15T01:39:19.615Z,1656
2024-01-15T01:44:38.234Z,1656
2024-01-15T01:49:56.771Z,1671
2024-01-15T01:55:15.054Z,1678
2024-01-15T02:00:33.417Z,1676
2024-01-15T02:05:52.208Z,1672
2024-01-15T02:11:10.562Z,1668
2024-01-15T02:16:28.715Z,1663
2024-01-15T02:21:47.234Z,1654
2024-01-15T02:27:05.828Z,1644
2024-01-15T02:32:23.910Z,1631
2024-01-15T02:37:42.647Z,1616
2024-01-15T02:43:00.977Z,1606
2024-01-15T02:48:19.895Z,1610
2024-01-15T02:53:38.669Z,1618
2024-01-15T02:58:57.059Z,1620
2024-01-15T03:04:15.520Z,1634
2024-01-15T03:09:34.466Z,1629
2024-01-15T03:14:52.509Z,1624
2024-01-15T03:20:11.044Z,1620
2024-01-15T03:25:29.264Z,1608
2024-01-15T03:30:47.427Z,1618
2024-01-15T03:36:06.117Z,1626
2024-01-15T03:41:24.441Z,1615
2024-01-15T03:46:42.777Z,1612
2024-01-15T03:52:01.304Z,1609
2024-01-15T03:57:19.671Z,1594
2024-01-15T04:02:38.096Z,1571
2024-01-15T04:07:56.428Z,1566
2024-01-15T04:13:14.741Z,1558
2024-01-15T04:18:32.886Z,1568
2024-01-15T04:23:51.080Z,1561
2024-01-15T04:29:08.994Z,1550
2024-01-15T04:34:27.252Z,1554
2024-01-15T04:39:46.363Z,1547
2024-01-15T04:45:05.020Z,1575
2024-01-15T04:50:24.019Z,1588
2024-01-15T04:55:42.392Z,1565
2024-01-15T05:01:00.820Z,1549
2024-01-15T05:06:19.299Z,1540
2024-01-15T05:11:38.179Z,1521
2024-01-15T05:16:56.541Z,1507
2024-01-15T05:22:14.846Z,1519
2024-01-15T05:27:33.428Z,1499
2024-01-15T05:32:51.780Z,1526
2024-01-15T05:38:10.298Z,1555
2024-01-15T05:43:28.447Z,1541
2024-01-15T05:48:46.614Z,1557
2024-01-15T05:54:05.533Z,1542
2024-01-15T05:59:23.849Z,1538
2024-01-15T06:04:42.544Z,1539
2024-01-15T06:10:00.965Z,1491
2024-01-15T06:15:19.202Z,1494
2024-01-15T06:20:37.594Z,1463
2024-01-15T06:25:56.169Z,1437
2024-01-15T06:31:14.910Z,1451
2024-01-15T06:36:33.733Z,1435
2024-01-15T06:41:51.925Z,1412
2024-01-15T06:47:10.150Z,1421
2024-01-15T06:52:28.503Z,1414
2024-01-15T06:57:46.876Z,1401
2024-01-15T07:03:05.354Z,1421
2024-01-15T07:08:23.760Z,1432
2024-01-15T07:13:42.141Z,1400
2024-01-15T07:19:00.343Z,1385
2024-01-15T07:24:18.834Z,1414
2024-01-15T07:29:37.442Z,1386
2024-01-15T07:34:56.143Z,1372
2024-01-15T07:40:15.291Z,1375
2024-01-15T07:45:33.575Z,1351
2024-01-15T07:50:52.369Z,1319
2024-01-15T07:56:10.718Z,1244
2024-01-15T08:01:29.435Z,1297
2024-01-15T08:06:48.313Z,1346
2024-01-15T08:12:07.070Z,1344
2024-01-15T08:17:25.520Z,1330
2024-01-15T08:22:44.139Z,1313
2024-01-15T08:28:02.493Z,1307
2024-01-15T08:33:21.740Z,1297
2024-01-15T08:38:41.238Z,1292
2024-01-15T08:43:59.727Z,1294
2024-01-15T08:49:17.878Z,1296
2024-01-15T08:54:36.431Z,1303
2024-01-15T08:59:56.384Z,1300
2024-01-15T09:05:14.811Z,1308
2024-01-15T09:10:33.875Z,1289
2024-01-15T09:15:52.335Z,1283
2024-01-15T09:21:11.112Z,1280
2024-01-15T09:26:29.322Z,1272
2024-01-15T09:31:47.696Z,1269
2024-01-15T09:37:06.456Z,1271
2024-01-15T09:42:25.056Z,1273
2024-01-15T09:47:45.193Z,1263
2024-01-15T09:53:05.286Z,1259
2024-01-15T09:58:23.705Z,1269
2024-01-15T10:03:41.948Z,1280
2024-01-15T10:09:00.391Z,1291
2024-01-15T10:14:19.754Z,1291
2024-01-15T10:19:37.780Z,1295
2024-01-15T10:24:56.827Z,1277
2024-01-15T10:30:15.343Z,1258
2024-01-15T10:35:34.133Z,1266
2024-01-15T10:40:52.532Z,1272
2024-01-15T10:46:10.950Z,1279
2024-01-15T10:51:29.421Z,1268
2024-01-15T10:56:47.694Z,1258
2024-01-15T11:02:06.062Z,1251
2024-01-15T11:07:26.957Z,1240
2024-01-15T11:12:48.011Z,1233
2024-01-15T11:18:06.315Z,1237
2024-01-15T11:23:25.357Z,1230
2024-01-15T11:28:43.665Z,1218
2024-01-15T11:34:02.156Z,1217
2024-01-15T11:39:21.129Z,1212
2024-01-15T11:44:39.127Z,1206
2024-01-15T11:49:57.339Z,1196
2024-01-15T11:55:15.888Z,1197
2024-01-15T12:00:34.504Z,1196
2024-01-15T12:05:53.084Z,1188
2024-01-15T12:11:11.876Z,1187
2024-01-15T12:16:30.227Z,1180
2024-01-15T12:21:48.404Z,1175
2024-01-15T12:27:06.750Z,1171
2024-01-15T12:32:28.153Z,1172
2024-01-15T12:37:46.345Z,1159
2024-01-15T12:43:04.562Z,1151
2024-01-15T12:48:23.025Z,1151
2024-01-15T12:53:41.555Z,1142
2024-01-15T12:58:59.916Z,1135
2024-01-15T13:04:18.100Z,1131
2024-01-15T13:09:36.938Z,1130
2024-01-15T13:14:55.512Z,1126
2024-01-15T13:20:14.129Z,1123
2024-01-15T13:25:33.181Z,1124
2024-01-15T13:30:51.152Z,1119
2024-01-15T13:36:09.371Z,1112
2024-01-15T13:41:27.932Z,1109
2024-01-15T13:46:46.702Z,1106
2024-01-15T13:52:05.178Z,1101
2024-01-15T13:57:23.870Z,1100
2024-01-15T14:02:42.792Z,1096
2024-01-15T14:08:01.295Z,1095
2024-01-15T14:13:19.484Z,1092
2024-01-15T14:18:38.132Z,1093
2024-01-15T14:23:56.997Z,1086
2024-01-15T14:29:15.558Z,1092
2024-01-15T14:34:34.050Z,1088
2024-01-15T14:39:52.568Z,1085
2024-01-15T14:45:11.080Z,1087
2024-01-15T14:50:29.221Z,1086
2024-01-15T14:55:47.579Z,1082
2024-01-15T15:01:06.332Z,1080
2024-01-15T15:06:24.716Z,1079
2024-01-15T15:11:44.509Z,1073
2024-01-15T15:17:02.897Z,1074
2024-01-15T15:22:21.249Z,1080
2024-01-15T15:27:39.589Z,1077
2024-01-15T15:32:58.816Z,1078
2024-01-15T15:38:17.959Z,1075
2024-01-15T15:43:37.106Z,1079
2024-01-15T15:48:55.846Z,1079
2024-01-15T15:54:14.445Z,1078
2024-01-15T15:59:32.439Z,1086
2024-01-15T16:04:50.845Z,1084
2024-01-15T16:10:09.738Z,1083
2024-01-15T16:15:28.786Z,1088
2024-01-15T16:23:05.474Z,1087
2024-01-15T16:29:44.038Z,1134
2024-01-15T16:35:02.564Z,1175
2024-01-15T16:40:21.346Z,1200
2024-01-15T16:45:39.274Z,1199
2024-01-15T16:50:57.861Z,1195
2024-01-15T16:56:16.629Z,1195
2024-01-15T17:01:35.200Z,1192
2024-01-15T17:06:53.503Z,1191
2024-01-15T17:12:11.904Z,1190
2024-01-15T17:17:30.215Z,1185
2024-01-15T17:22:48.958Z,1183
2024-01-15T17:28:06.956Z,1178
2024-01-15T17:33:25.041Z,1181
2024-01-15T17:38:43.486Z,1177
2024-01-15T17:44:01.590Z,1175
2024-01-15T17:49:20.650Z,1172
2024-01-15T17:54:38.760Z,1180
2024-01-15T17:59:56.771Z,1179
2024-01-15T18:05:14.992Z,1179
2024-01-15T18:10:33.357Z,1179
2024-01-15T18:15:52.153Z,1180
2024-01-15T18:21:10.274Z,1175
2024-01-15T18:26:28.705Z,1172
2024-01-15T18:31:47.224Z,1181
2024-01-15T18:37:05.396Z,1177
2024-01-15T18:42:23.722Z,1177
2024-01-15T18:47:42.137Z,1178
2024-01-15T18:53:00.444Z,1204
2024-01-15T18:58:18.826Z,1199
2024-01-15T19:03:37.231Z,1212
2024-01-15T19:08:55.602Z,1217
2024-01-15T19:14:13.839Z,1220
2024-01-15T19:19:32.216Z,1225
2024-01-15T19:24:50.897Z,1225
2024-01-15T19:30:09.549Z,1232
2024-01-15T19:35:28.131Z,1237
2024-01-15T19:40:46.325Z,1239
2024-01-15T19:46:04.460Z,1258
2024-01-15T19:51:23.040Z,1264
2024-01-15T19:56:41.283Z,1264
2024-01-15T20:01:59.871Z,1270
2024-01-15T20:07:18.499Z,1276
2024-01-15T20:12:36.842Z,1283
2024-01-15T20:17:55.135Z,1282
2024-01-15T20:23:13.917Z,1284
2024-01-15T20:28:32.136Z,1291
2024-01-15T20:33:50.603Z,1294
2024-01-15T20:39:09.511Z,1298
2024-01-15T20:44:28.156Z,1301
2024-01-15T20:49:47.148Z,1310
2024-01-15T20:55:08.058Z,1308
2024-01-15T21:00:26.251Z,1301
2024-01-15T21:05:44.652Z,1295
2024-01-15T21:11:03.247Z,1293
2024-01-15T21:16:21.747Z,1292
2024-01-15T21:21:40.068Z,1299
2024-01-15T21:27:01.454Z,1293
2024-01-15T21:32:19.735Z,1293
2024-01-15T21:37:38.571Z,1293
2024-01-15T21:42:56.932Z,1292
2024-01-15T21:48:15.409Z,1273
2024-01-15T21:53:35.391Z,1334
2024-01-15T21:58:53.897Z,1380
2024-01-15T22:04:12.351Z,1409
2024-01-15T22:09:30.766Z,1431
2024-01-15T22:14:49.196Z,1456
2024-01-15T22:20:07.585Z,1460
2024-01-15T22:25:25.990Z,1453
2024-01-15T22:30:44.344Z,1456
2024-01-15T22:36:02.476Z,1490
2024-01-15T22:41:20.418Z,1524
2024-01-15T22:46:38.885Z,1531
2024-01-15T22:51:57.180Z,1543
2024-01-15T22:57:15.139Z,1571
2024-01-15T23:02:33.517Z,1594
2024-01-15T23:07:52.004Z,1574
2024-01-15T23:13:10.615Z,1571
2024-01-15T23:18:28.591Z,1561
2024-01-15T23:23:47.346Z,1561
2024-01-15T23:29:05.783Z,1563
2024-01-15T23:34:24.465Z,1556
2024-01-15T23:39:43.111Z,1552
2024-01-15T23:45:01.447Z,1551
2024-01-15T23:50:19.973Z,1544
2024-01-15T23:55:38.293Z,1545
